createdAt,value
2022-10-30T00:00:43.859Z,77.21
2022-10-30T00:11:18.945Z,77.04
2022-10-30T00:21:46.357Z,77.19
2022-10-30T00:32:13.839Z,76.95
2022-10-30T00:42:41.325Z,77.27
2022-10-30T00:53:12.135Z,77.51
2022-10-30T01:03:40.529Z,77.82
2022-10-30T01:14:11.315Z,78.00
2022-10-30T01:24:53.196Z,78.26
2022-10-30T01:35:25.271Z,78.52
2022-10-30T01:46:10.723Z,78.53
2022-10-30T01:56:46.204Z,78.74
2022-10-30T02:07:14.730Z,79.04
2022-10-30T02:17:42.754Z,79.33
2022-10-30T02:28:10.601Z,79.30
2022-10-30T02:38:38.497Z,79.37
2022-10-30T02:49:06.522Z,79.49
2022-10-30T02:59:34.489Z,79.64
2022-10-30T03:10:02.405Z,79.91
2022-10-30T03:20:30.388Z,80.09
2022-10-30T03:31:03.587Z,80.28
2022-10-30T03:41:31.758Z,80.43
2022-10-30T03:51:59.129Z,80.46
2022-10-30T04:02:26.447Z,80.33
2022-10-30T04:12:54.992Z,80.31
2022-10-30T04:23:23.279Z,80.35
2022-10-30T04:33:51.093Z,80.37
2022-10-30T04:44:18.402Z,80.41
2022-10-30T04:54:45.704Z,80.60
2022-10-30T05:05:13.181Z,80.46
2022-10-30T05:15:40.829Z,80.31
2022-10-30T05:26:08.248Z,80.36
2022-10-30T05:36:35.497Z,80.37
2022-10-30T05:47:02.763Z,80.52
2022-10-30T05:57:33.299Z,80.44
2022-10-30T06:08:00.569Z,80.49
2022-10-30T06:18:27.815Z,80.59
2022-10-30T06:28:55.160Z,80.63
2022-10-30T06:39:22.638Z,80.85
2022-10-30T06:49:49.905Z,80.88
2022-10-30T07:00:17.982Z,80.66
2022-10-30T07:10:45.451Z,80.71
2022-10-30T07:21:12.875Z,80.98
2022-10-30T07:31:49.558Z,81.40
2022-10-30T07:42:17.341Z,81.57
2022-10-30T07:52:44.721Z,81.52
2022-10-30T08:03:13.652Z,81.14
2022-10-30T08:13:41.166Z,80.79
2022-10-30T08:24:09.377Z,80.13
2022-10-30T08:34:36.628Z,79.28
2022-10-30T08:45:03.992Z,78.67
2022-10-30T08:55:31.469Z,77.66
2022-10-30T09:06:01.287Z,76.49
2022-10-30T09:16:28.681Z,75.77
2022-10-30T09:26:57.625Z,74.64
2022-10-30T09:37:25.150Z,74.02
2022-10-30T09:47:57.923Z,73.31
2022-10-30T09:58:35.472Z,72.18
2022-10-30T10:09:09.165Z,72.03
2022-10-30T10:19:42.816Z,71.68
2022-10-30T10:30:16.828Z,71.50
2022-10-30T10:40:55.359Z,71.18
2022-10-30T10:51:28.060Z,70.51
2022-10-30T11:02:01.506Z,69.88
2022-10-30T11:12:33.868Z,68.92
2022-10-30T11:23:03.744Z,68.31
2022-10-30T11:33:31.614Z,67.99
2022-10-30T11:43:59.142Z,67.32
2022-10-30T11:54:27.714Z,66.68
2022-10-30T12:04:55.812Z,65.93
2022-10-30T12:15:26.657Z,65.61
2022-10-30T12:25:56.817Z,65.12
2022-10-30T12:36:28.554Z,65.46
2022-10-30T12:47:02.321Z,65.11
2022-10-30T12:57:34.372Z,64.83
2022-10-30T13:08:18.772Z,64.79
2022-10-30T13:18:46.168Z,64.62
2022-10-30T13:29:23.186Z,64.78
2022-10-30T13:40:02.997Z,64.59
2022-10-30T13:50:46.680Z,64.74
2022-10-30T14:01:24.095Z,64.74
2022-10-30T14:11:53.757Z,64.79
2022-10-30T14:22:26.693Z,64.70
2022-10-30T14:32:54.683Z,64.56
2022-10-30T14:43:31.940Z,64.76
2022-10-30T14:54:07.583Z,65.18
2022-10-30T15:04:46.779Z,65.37
2022-10-30T15:15:18.678Z,65.52
2022-10-30T15:25:51.633Z,65.65
2022-10-30T15:36:22.063Z,65.36
2022-10-30T15:46:51.928Z,65.49
2022-10-30T16:08:16.684Z,65.12
2022-10-30T16:18:44.911Z,65.07
2022-10-30T16:29:24.293Z,64.75
2022-10-30T16:39:54.265Z,65.01
2022-10-30T16:50:22.607Z,65.04
2022-10-30T17:00:55.784Z,65.14
2022-10-30T17:11:37.089Z,64.57
2022-10-30T17:22:11.216Z,64.32
2022-10-30T17:32:46.815Z,64.02
2022-10-30T17:43:15.779Z,63.68
2022-10-30T17:53:43.507Z,63.65
2022-10-30T18:04:17.893Z,64.01
2022-10-30T18:14:48.269Z,64.31
2022-10-30T18:25:21.859Z,64.34
2022-10-30T18:35:49.380Z,63.96
2022-10-30T18:46:17.595Z,64.12
2022-10-30T18:56:45.116Z,63.96
2022-10-30T19:07:10.999Z,64.46
2022-10-30T19:17:38.370Z,64.82
2022-10-30T19:28:06.020Z,65.28
2022-10-30T19:38:34.006Z,65.64
2022-10-30T19:49:01.374Z,66.06
2022-10-30T19:59:28.986Z,66.45
2022-10-30T20:09:56.354Z,66.75
2022-10-30T20:20:26.403Z,66.94
2022-10-30T20:30:54.223Z,67.06
2022-10-30T20:41:23.845Z,66.99
2022-10-30T20:51:51.044Z,67.08
2022-10-30T21:02:18.404Z,67.10
2022-10-30T21:12:45.857Z,67.24
2022-10-30T21:23:13.734Z,67.34
2022-10-30T21:33:39.844Z,67.06
2022-10-30T21:44:07.517Z,67.04
2022-10-30T21:54:34.943Z,66.50
2022-10-30T22:05:02.341Z,66.18
2022-10-30T22:15:29.718Z,65.96
2022-10-30T22:26:01.365Z,65.77
2022-10-30T22:36:30.948Z,65.49
2022-10-30T22:46:58.314Z,65.27
2022-10-30T22:57:25.698Z,64.95
2022-10-30T23:07:54.596Z,64.90
2022-10-30T23:18:21.963Z,64.99
2022-10-30T23:28:50.812Z,64.87
2022-10-30T23:39:19.748Z,64.95
2022-10-30T23:49:47.202Z,64.72
